createdAt,value
2023-05-25T00:00:49.834Z,25.30
2023-05-25T00:01:41.162Z,27.40
2023-05-25T00:02:39.446Z,34.30
2023-05-25T00:03:39.224Z,26.10
2023-05-25T00:04:39.177Z,26.10
2023-05-25T00:05:39.082Z,27.40
2023-05-25T00:06:39.133Z,26.10
2023-05-25T00:07:39.053Z,22.90
2023-05-25T00:08:39.012Z,24.40
2023-05-25T00:09:39.145Z,22.90
2023-05-25T00:10:38.979Z,26.10
2023-05-25T00:11:39.001Z,26.70
2023-05-25T00:12:39.110Z,26.50
2023-05-25T00:13:39.069Z,26.90
2023-05-25T00:14:38.955Z,25.50
2023-05-25T00:15:39.501Z,27.50
2023-05-25T00:16:38.949Z,24.80
2023-05-25T00:17:39.005Z,19.20
2023-05-25T00:18:38.924Z,22.10
2023-05-25T00:19:38.905Z,24.90
2023-05-25T00:20:39.043Z,28.80
2023-05-25T00:21:38.897Z,25.70
2023-05-25T00:22:38.939Z,25.50
2023-05-25T00:23:38.851Z,24.10
2023-05-25T00:24:38.888Z,21.70
2023-05-25T00:25:38.834Z,27.10
2023-05-25T00:26:38.859Z,25.10
2023-05-25T00:27:38.825Z,20.90
2023-05-25T00:28:38.822Z,24.70
2023-05-25T00:29:38.758Z,21.70
2023-05-25T00:30:38.865Z,25.20
2023-05-25T00:31:38.903Z,25.10
2023-05-25T00:32:38.802Z,21.70
2023-05-25T00:33:38.737Z,24.10
2023-05-25T00:34:38.735Z,23.30
2023-05-25T00:35:38.742Z,32.40
2023-05-25T00:36:38.685Z,27.40
2023-05-25T00:37:38.700Z,26.30
2023-05-25T00:38:38.700Z,28.50
2023-05-25T00:39:38.674Z,27.30
2023-05-25T00:40:38.691Z,26.80
2023-05-25T00:41:38.697Z,28.20
2023-05-25T00:42:38.699Z,30.20
2023-05-25T00:43:38.675Z,31.10
2023-05-25T00:44:38.672Z,31.30
2023-05-25T00:45:38.609Z,29.80
2023-05-25T00:46:38.683Z,26.10
2023-05-25T00:47:38.658Z,26.30
2023-05-25T00:48:38.582Z,28.80
2023-05-25T00:49:38.565Z,26.60
2023-05-25T00:50:38.547Z,24.70
2023-05-25T00:51:38.548Z,25.20
2023-05-25T00:52:38.574Z,24.60
2023-05-25T00:53:38.722Z,17.50
2023-05-25T00:54:38.528Z,25.10
2023-05-25T00:55:38.547Z,23.90
2023-05-25T00:56:38.513Z,23.00
2023-05-25T00:57:38.539Z,23.00
2023-05-25T00:58:38.513Z,25.00
2023-05-25T00:59:38.516Z,24.90
2023-05-25T01:00:38.454Z,23.80
2023-05-25T01:01:38.512Z,19.80
2023-05-25T01:02:38.551Z,27.60
2023-05-25T01:03:38.723Z,25.60
2023-05-25T01:04:38.378Z,26.80
2023-05-25T01:05:38.414Z,25.00
2023-05-25T01:06:38.410Z,31.00
2023-05-25T01:07:38.416Z,25.40
2023-05-25T01:08:38.400Z,25.70
2023-05-25T01:09:38.372Z,23.60
2023-05-25T01:10:38.379Z,26.30
2023-05-25T01:11:38.373Z,28.40
2023-05-25T01:12:38.382Z,30.40
2023-05-25T01:13:38.363Z,24.30
2023-05-25T01:14:38.285Z,27.90
2023-05-25T01:15:39.333Z,26.80
2023-05-25T01:16:38.381Z,25.80
2023-05-25T01:17:38.620Z,24.60
2023-05-25T01:18:38.254Z,25.80
2023-05-25T01:19:38.206Z,25.60
2023-05-25T01:20:38.239Z,28.10
2023-05-25T01:21:38.182Z,28.20
2023-05-25T01:22:38.229Z,30.80
2023-05-25T01:23:38.204Z,28.50
2023-05-25T01:24:38.194Z,24.30
2023-05-25T01:25:38.190Z,21.80
2023-05-25T01:26:38.233Z,23.00
2023-05-25T01:27:38.154Z,21.00
2023-05-25T01:28:38.144Z,24.90
2023-05-25T01:29:38.114Z,27.00
2023-05-25T01:30:38.102Z,23.20
2023-05-25T01:31:38.137Z,22.60
2023-05-25T01:32:38.088Z,28.00
2023-05-25T01:33:38.115Z,29.20
2023-05-25T01:34:38.062Z,22.40
2023-05-25T01:35:38.083Z,23.20
2023-05-25T01:36:38.068Z,21.30
2023-05-25T01:37:38.041Z,23.90
2023-05-25T01:38:38.034Z,24.60
2023-05-25T01:39:37.995Z,27.90
2023-05-25T01:40:38.053Z,21.30
2023-05-25T01:41:39.000Z,23.50
2023-05-25T01:42:37.971Z,23.20
2023-05-25T01:43:37.972Z,20.60
2023-05-25T01:44:38.005Z,29.50
2023-05-25T01:45:38.042Z,25.90
2023-05-25T01:46:38.128Z,20.50
2023-05-25T01:47:38.016Z,27.00
2023-05-25T01:48:37.964Z,26.40
2023-05-25T01:49:37.891Z,21.60
2023-05-25T01:50:37.909Z,26.00
2023-05-25T01:51:37.970Z,21.00
2023-05-25T01:52:37.872Z,24.60
2023-05-25T01:53:37.868Z,27.20
2023-05-25T01:54:37.852Z,26.50
2023-05-25T01:55:37.891Z,29.20
2023-05-25T01:56:38.007Z,23.70
2023-05-25T01:57:37.832Z,22.50
2023-05-25T01:58:37.812Z,20.50
2023-05-25T01:59:37.887Z,25.90
2023-05-25T02:00:37.899Z,28.00
2023-05-25T02:01:37.867Z,21.20
2023-05-25T02:02:37.767Z,20.40
2023-05-25T02:03:37.754Z,25.50
2023-05-25T02:04:37.911Z,27.70
2023-05-25T02:05:37.761Z,21.90
2023-05-25T02:06:37.793Z,24.30
2023-05-25T02:07:37.881Z,20.00
2023-05-25T02:08:38.490Z,21.60
2023-05-25T02:09:37.802Z,24.30
2023-05-25T02:10:37.682Z,24.40
2023-05-25T02:11:37.663Z,20.10
2023-05-25T02:12:37.621Z,25.80
2023-05-25T02:13:37.675Z,22.10
2023-05-25T02:14:37.624Z,28.30
2023-05-25T02:15:37.696Z,22.90
2023-05-25T02:16:37.795Z,24.50
2023-05-25T02:17:37.723Z,21.80
2023-05-25T02:18:37.611Z,25.60
2023-05-25T02:19:37.546Z,24.00
2023-05-25T02:20:37.708Z,27.30
2023-05-25T02:21:37.541Z,24.30
2023-05-25T02:22:37.570Z,23.50
2023-05-25T02:23:37.528Z,25.40
2023-05-25T02:24:37.537Z,26.10
2023-05-25T02:25:37.508Z,25.30
2023-05-25T02:26:37.495Z,30.30
2023-05-25T02:27:37.511Z,23.00
2023-05-25T02:28:37.466Z,26.20
2023-05-25T02:29:37.487Z,23.50
2023-05-25T02:30:37.459Z,21.40
2023-05-25T02:31:37.471Z,25.80
2023-05-25T02:32:37.483Z,26.80
2023-05-25T02:33:37.465Z,25.30
2023-05-25T02:34:37.421Z,22.40
2023-05-25T02:35:37.390Z,24.00
2023-05-25T02:36:37.373Z,23.90
2023-05-25T02:37:37.410Z,22.60
2023-05-25T02:38:37.369Z,27.30
2023-05-25T02:39:37.329Z,25.50
2023-05-25T02:40:37.381Z,20.70
2023-05-25T02:41:37.378Z,23.20
2023-05-25T02:42:38.022Z,22.30
2023-05-25T02:43:37.330Z,27.30
2023-05-25T02:44:37.419Z,24.50
2023-05-25T02:45:37.287Z,29.60
2023-05-25T02:46:37.337Z,22.80
2023-05-25T02:47:37.283Z,22.60
2023-05-25T02:48:37.263Z,24.30
2023-05-25T02:49:37.252Z,23.60
2023-05-25T02:50:37.249Z,20.30
2023-05-25T02:51:37.251Z,21.60
2023-05-25T02:52:37.237Z,24.50
2023-05-25T02:53:37.196Z,19.50
2023-05-25T02:54:37.172Z,20.80
2023-05-25T02:55:37.200Z,22.30
2023-05-25T02:56:37.171Z,22.90
2023-05-25T02:57:37.220Z,24.60
2023-05-25T02:58:37.142Z,28.20
2023-05-25T02:59:37.181Z,24.00
2023-05-25T03:00:37.149Z,21.60
2023-05-25T03:01:37.153Z,19.90
2023-05-25T03:03:09.631Z,24.30
2023-05-25T03:03:39.878Z,24.60
2023-05-25T03:04:37.711Z,25.90
2023-05-25T03:05:37.202Z,24.10
2023-05-25T03:06:37.160Z,18.00
2023-05-25T03:07:37.079Z,22.80
2023-05-25T03:08:37.076Z,21.70
2023-05-25T03:09:37.060Z,18.50
2023-05-25T03:10:37.126Z,23.20
2023-05-25T03:11:37.050Z,20.20
2023-05-25T03:12:37.066Z,17.70
2023-05-25T03:13:37.638Z,18.40
2023-05-25T03:14:38.641Z,25.90
2023-05-25T03:15:36.987Z,24.90
2023-05-25T03:16:37.116Z,24.70
2023-05-25T03:17:37.117Z,25.30
2023-05-25T03:18:36.964Z,25.80
2023-05-25T03:19:38.001Z,24.30
2023-05-25T03:20:37.968Z,25.80
2023-05-25T03:21:38.095Z,22.90
2023-05-25T03:22:38.265Z,20.50
2023-05-25T03:23:37.024Z,20.30
2023-05-25T03:24:37.073Z,24.20
2023-05-25T03:25:36.936Z,23.80
2023-05-25T03:26:37.207Z,26.30
2023-05-25T03:27:37.075Z,26.50
2023-05-25T03:28:36.878Z,24.30
2023-05-25T03:29:36.852Z,21.20
2023-05-25T03:30:37.790Z,26.10
2023-05-25T03:31:36.825Z,23.90
2023-05-25T03:32:36.794Z,27.80
2023-05-25T03:33:36.755Z,23.00
2023-05-25T03:34:36.791Z,32.00
2023-05-25T03:35:36.773Z,22.60
2023-05-25T03:36:36.746Z,22.70
2023-05-25T03:37:36.722Z,26.90
2023-05-25T03:38:36.833Z,24.20
2023-05-25T03:39:36.759Z,28.90
2023-05-25T03:40:36.718Z,22.80
2023-05-25T03:41:36.723Z,24.30
2023-05-25T03:42:36.676Z,28.00
2023-05-25T03:43:36.685Z,24.60
2023-05-25T03:44:37.536Z,24.60
2023-05-25T03:45:36.600Z,35.40
2023-05-25T03:46:36.748Z,24.20
2023-05-25T03:47:36.697Z,27.80
2023-05-25T03:48:36.652Z,29.70
2023-05-25T03:49:36.664Z,34.00
2023-05-25T03:50:38.935Z,31.80
2023-05-25T03:51:36.997Z,30.00
2023-05-25T03:52:36.985Z,23.80
2023-05-25T03:53:36.949Z,30.50
2023-05-25T03:54:36.763Z,33.10
2023-05-25T03:55:36.600Z,31.20
2023-05-25T03:56:36.577Z,28.70
2023-05-25T03:57:36.484Z,30.70
2023-05-25T03:58:36.524Z,32.00
2023-05-25T03:59:36.492Z,29.90
2023-05-25T04:00:36.475Z,26.30
2023-05-25T04:01:36.559Z,31.90
2023-05-25T04:02:37.429Z,32.00
2023-05-25T04:03:38.443Z,34.40
2023-05-25T04:04:37.738Z,26.80
2023-05-25T04:05:38.056Z,31.50
2023-05-25T04:06:40.308Z,34.50
2023-05-25T04:07:38.261Z,39.20
2023-05-25T04:08:36.563Z,30.60
2023-05-25T04:09:37.553Z,31.60
2023-05-25T04:10:36.569Z,24.00
2023-05-25T04:11:36.439Z,23.60
2023-05-25T04:12:38.550Z,35.00
2023-05-25T04:13:40.933Z,37.80
2023-05-25T04:14:43.163Z,38.40
2023-05-25T04:15:42.861Z,43.60
2023-05-25T04:16:40.911Z,41.10
2023-05-25T04:17:39.130Z,43.20
2023-05-25T04:18:40.882Z,44.30
2023-05-25T04:19:36.840Z,38.50
2023-05-25T04:20:38.547Z,40.40
2023-05-25T18:10:52.167Z,16.60
2023-05-25T18:11:55.264Z,14.10
2023-05-25T18:12:54.418Z,16.60
2023-05-25T18:13:53.558Z,15.40
2023-05-25T18:14:54.273Z,18.70
2023-05-25T18:15:53.429Z,14.50
2023-05-25T18:16:53.358Z,17.40
2023-05-25T18:17:53.356Z,18.60
2023-05-25T18:18:53.491Z,14.60
2023-05-25T18:19:53.862Z,15.40
2023-05-25T18:20:53.304Z,15.70
2023-05-25T18:21:53.303Z,16.30
2023-05-25T18:22:53.194Z,15.90
2023-05-25T18:23:53.140Z,15.50
2023-05-25T18:24:53.168Z,13.10
2023-05-25T18:25:53.138Z,19.10
2023-05-25T18:26:53.122Z,15.90
2023-05-25T18:27:53.119Z,13.30
2023-05-25T18:28:53.112Z,14.80
2023-05-25T18:29:53.113Z,14.60
2023-05-25T18:30:53.127Z,16.70
2023-05-25T18:31:53.272Z,16.40
2023-05-25T18:32:53.399Z,13.00
2023-05-25T18:33:53.046Z,15.00
2023-05-25T18:34:53.619Z,13.80
2023-05-25T18:35:53.017Z,13.00
2023-05-25T18:36:53.122Z,13.00
2023-05-25T18:37:52.990Z,16.50
2023-05-25T18:38:53.107Z,17.90
2023-05-25T18:39:53.007Z,15.50
2023-05-25T18:40:53.026Z,16.10
2023-05-25T18:41:52.901Z,15.90
2023-05-25T18:42:52.970Z,14.10
2023-05-25T18:43:52.977Z,13.80
2023-05-25T18:44:53.098Z,15.00
2023-05-25T18:45:52.900Z,14.30
2023-05-25T18:46:52.954Z,15.70
2023-05-25T18:47:53.901Z,19.40
2023-05-25T18:48:52.892Z,14.70
2023-05-25T18:49:52.888Z,17.60
2023-05-25T18:50:52.807Z,19.00
2023-05-25T18:51:52.818Z,16.00
2023-05-25T18:52:52.810Z,18.20
2023-05-25T18:53:52.975Z,18.30
2023-05-25T18:54:52.778Z,15.10
2023-05-25T18:55:52.774Z,15.30
2023-05-25T18:56:52.739Z,16.10
2023-05-25T18:57:52.798Z,18.80
2023-05-25T18:58:52.698Z,14.00
2023-05-25T18:59:52.735Z,16.40
2023-05-25T19:00:52.732Z,17.60
2023-05-25T19:01:52.751Z,16.20
2023-05-25T19:02:52.753Z,20.90
2023-05-25T19:03:53.178Z,13.50
2023-05-25T19:04:52.695Z,15.60
2023-05-25T19:05:52.650Z,15.50
2023-05-25T19:06:52.658Z,18.40
2023-05-25T19:07:58.909Z,15.30
2023-05-25T19:09:22.331Z,15.50
2023-05-25T19:09:52.586Z,18.00
2023-05-25T19:10:52.696Z,16.20
2023-05-25T19:11:52.548Z,15.90
2023-05-25T19:12:52.626Z,19.00
2023-05-25T19:13:52.582Z,16.00
2023-05-25T19:14:52.585Z,16.20
2023-05-25T19:15:52.636Z,17.80
2023-05-25T19:16:52.537Z,14.70
2023-05-25T19:17:52.614Z,16.70
2023-05-25T19:18:52.525Z,15.00
2023-05-25T19:19:52.549Z,12.60
2023-05-25T19:20:52.446Z,20.00
2023-05-25T19:21:52.467Z,14.60
2023-05-25T19:22:52.429Z,18.30
2023-05-25T19:23:52.475Z,14.60
2023-05-25T19:25:00.674Z,13.70
2023-05-25T19:25:54.472Z,18.20
2023-05-25T19:26:52.455Z,14.80
2023-05-25T19:27:52.437Z,16.70
2023-05-25T19:28:52.394Z,13.80
2023-05-25T19:29:52.356Z,11.80
2023-05-25T19:30:52.357Z,14.90
2023-05-25T19:31:52.393Z,13.00
2023-05-25T19:32:52.424Z,17.50
2023-05-25T19:33:52.321Z,15.00
2023-05-25T19:34:52.324Z,19.10
2023-05-25T19:35:52.892Z,14.90
2023-05-25T19:37:00.031Z,19.30
2023-05-25T19:37:54.884Z,19.00
2023-05-25T19:38:52.309Z,14.00
2023-05-25T19:39:52.258Z,13.60
2023-05-25T19:40:52.249Z,16.20
2023-05-25T19:41:52.266Z,15.70
2023-05-25T19:42:52.255Z,15.90
2023-05-25T19:43:52.199Z,17.00
2023-05-25T19:44:52.452Z,14.60
2023-05-25T19:45:52.308Z,18.70
2023-05-25T19:46:52.224Z,15.80
2023-05-25T19:47:52.265Z,15.30
2023-05-25T19:48:52.168Z,12.30
2023-05-25T19:49:52.128Z,13.10
2023-05-25T19:50:52.157Z,17.90
2023-05-25T19:51:52.168Z,15.20
2023-05-25T19:52:52.138Z,14.00
2023-05-25T19:53:52.131Z,13.50
2023-05-25T19:54:52.098Z,11.70
2023-05-25T19:55:53.059Z,13.10
2023-05-25T19:56:52.104Z,14.60
2023-05-25T19:57:52.100Z,13.50
2023-05-25T19:58:52.864Z,14.10
2023-05-25T19:59:52.022Z,15.50
2023-05-25T20:00:53.038Z,16.80
2023-05-25T20:01:52.123Z,17.70
2023-05-25T20:02:52.068Z,11.80
2023-05-25T20:03:52.007Z,14.00
2023-05-25T20:04:51.971Z,12.70
2023-05-25T20:05:51.933Z,17.40
2023-05-25T20:06:51.979Z,16.70
2023-05-25T20:07:51.938Z,14.40
2023-05-25T20:08:51.936Z,14.70
2023-05-25T20:09:52.209Z,14.60
2023-05-25T20:10:51.904Z,19.30
2023-05-25T20:11:51.944Z,15.90
2023-05-25T20:12:51.880Z,15.60
2023-05-25T20:13:51.910Z,18.60
2023-05-25T20:14:51.895Z,14.90
2023-05-25T20:15:52.826Z,15.10
2023-05-25T20:16:51.841Z,16.20
2023-05-25T20:17:51.848Z,14.10
2023-05-25T20:18:51.780Z,13.60
2023-05-25T20:19:51.813Z,15.00
2023-05-25T20:20:51.782Z,14.20
2023-05-25T20:21:51.811Z,16.20
2023-05-25T20:22:51.769Z,17.50
2023-05-25T20:23:51.756Z,16.50
2023-05-25T20:24:51.760Z,16.70
2023-05-25T20:25:51.734Z,14.80
2023-05-25T20:26:51.782Z,13.90
2023-05-25T20:27:51.707Z,13.40
2023-05-25T20:28:51.694Z,13.20
2023-05-25T20:29:51.675Z,16.40
2023-05-25T20:30:51.682Z,14.90
2023-05-25T20:31:51.732Z,17.20
2023-05-25T20:32:51.665Z,14.60
2023-05-25T20:33:51.679Z,18.60
2023-05-25T20:34:51.623Z,16.90
2023-05-25T20:35:51.681Z,11.90
2023-05-25T20:36:51.616Z,14.00
2023-05-25T20:37:51.585Z,14.50
2023-05-25T20:38:51.637Z,16.60
2023-05-25T20:39:51.615Z,15.50
2023-05-25T20:40:51.586Z,12.90
2023-05-25T20:41:51.603Z,28.80
2023-05-25T20:42:51.558Z,14.70
2023-05-25T20:43:51.532Z,14.10
2023-05-25T20:44:51.549Z,13.80
2023-05-25T20:45:51.602Z,28.20
2023-05-25T20:46:51.537Z,22.90
2023-05-25T20:47:52.566Z,28.50
2023-05-25T20:48:51.501Z,24.50
2023-05-25T20:49:51.497Z,17.50
2023-05-25T20:50:51.503Z,18.70
2023-05-25T20:51:51.483Z,21.30
2023-05-25T20:52:51.460Z,20.60
2023-05-25T20:53:51.436Z,20.60
2023-05-25T20:54:51.456Z,23.00
2023-05-25T20:55:51.396Z,20.00
2023-05-25T20:56:51.443Z,24.40
2023-05-25T20:57:51.422Z,20.50
2023-05-25T20:58:51.433Z,23.10
2023-05-25T20:59:51.397Z,21.70
2023-05-25T21:00:51.369Z,28.50
2023-05-25T21:01:51.398Z,27.00
2023-05-25T21:02:51.405Z,20.00
2023-05-25T21:03:51.459Z,18.30
2023-05-25T21:04:51.345Z,21.10
2023-05-25T21:05:51.378Z,22.60
2023-05-25T21:06:51.302Z,20.20
2023-05-25T21:07:51.321Z,18.00
2023-05-25T21:08:51.309Z,19.20
2023-05-25T21:09:51.312Z,16.40
2023-05-25T21:10:51.282Z,17.70
2023-05-25T21:11:51.314Z,18.90
2023-05-25T21:12:51.265Z,21.50
2023-05-25T21:13:51.284Z,17.10
2023-05-25T21:14:51.293Z,19.10
2023-05-25T21:15:51.272Z,21.60
2023-05-25T21:16:51.409Z,17.30
2023-05-25T21:17:51.274Z,18.70
2023-05-25T21:18:51.200Z,22.50
2023-05-25T21:19:51.228Z,23.70
2023-05-25T21:20:51.184Z,25.30
2023-05-25T21:21:51.167Z,22.60
2023-05-25T21:22:51.130Z,21.20
2023-05-25T21:23:51.160Z,24.70
2023-05-25T21:24:51.116Z,19.80
2023-05-25T21:25:51.795Z,21.90
2023-05-25T21:26:51.107Z,18.00
2023-05-25T21:27:51.124Z,19.60
2023-05-25T21:28:51.062Z,20.10
2023-05-25T21:29:51.093Z,20.90
2023-05-25T21:30:51.069Z,27.00
2023-05-25T21:31:51.115Z,18.80
2023-05-25T21:32:51.166Z,15.00
2023-05-25T21:33:51.027Z,16.60
2023-05-25T21:34:51.019Z,15.00
2023-05-25T21:35:51.018Z,16.20
2023-05-25T21:36:51.001Z,22.50
2023-05-25T21:37:51.001Z,15.40
2023-05-25T21:38:50.974Z,17.40
2023-05-25T21:39:50.983Z,13.40
2023-05-25T21:40:50.946Z,18.00
2023-05-25T21:41:50.974Z,15.60
2023-05-25T21:42:51.403Z,15.00
2023-05-25T21:43:51.908Z,16.50
2023-05-25T21:44:50.907Z,17.70
2023-05-25T21:45:50.919Z,19.40
2023-05-25T21:46:51.943Z,19.30
2023-05-25T21:47:51.066Z,18.80
2023-05-25T21:48:50.872Z,17.20
2023-05-25T21:49:50.893Z,19.60
2023-05-25T21:50:50.865Z,16.50
2023-05-25T21:51:50.837Z,15.00
2023-05-25T21:52:50.883Z,20.00
2023-05-25T21:53:50.874Z,16.60
2023-05-25T21:54:50.821Z,16.80
2023-05-25T21:55:50.829Z,16.30
2023-05-25T21:56:50.805Z,15.00
2023-05-25T21:57:50.778Z,20.40
2023-05-25T21:58:50.773Z,14.10
2023-05-25T21:59:50.805Z,17.00
2023-05-25T22:00:50.778Z,16.70
2023-05-25T22:01:50.779Z,13.30
2023-05-25T22:03:23.178Z,16.30
2023-05-25T22:03:50.755Z,21.00
2023-05-25T22:04:50.777Z,13.60
2023-05-25T22:06:24.355Z,15.80
2023-05-25T22:06:50.737Z,14.30
2023-05-25T22:07:50.727Z,19.90
2023-05-25T22:08:50.681Z,17.70
2023-05-25T22:09:50.793Z,16.50
2023-05-25T22:10:50.688Z,22.00
2023-05-25T22:11:50.690Z,18.80
2023-05-25T22:12:50.645Z,17.50
2023-05-25T22:13:50.658Z,18.50
2023-05-25T22:14:50.635Z,20.00
2023-05-25T22:15:50.677Z,17.70
2023-05-25T22:16:50.714Z,17.00
2023-05-25T22:17:50.605Z,16.10
2023-05-25T22:18:50.596Z,16.40
2023-05-25T22:20:03.300Z,19.40
2023-05-25T22:20:52.637Z,20.60
2023-05-25T22:21:50.583Z,21.40
2023-05-25T22:22:50.533Z,22.80
2023-05-25T22:23:50.520Z,17.00
2023-05-25T22:24:50.540Z,17.30
2023-05-25T22:25:50.506Z,24.00
2023-05-25T22:26:50.475Z,16.90
2023-05-25T22:27:50.488Z,15.50
2023-05-25T22:28:51.467Z,18.20
2023-05-25T22:29:50.458Z,18.20
2023-05-25T22:30:50.506Z,17.40
2023-05-25T22:31:50.545Z,15.20
2023-05-25T22:32:50.443Z,21.10
2023-05-25T22:33:50.459Z,17.90
2023-05-25T22:34:51.324Z,17.00
2023-05-25T22:35:51.420Z,15.60
2023-05-25T22:36:50.412Z,20.50
2023-05-25T22:37:50.392Z,18.40
2023-05-25T22:38:50.371Z,16.50
2023-05-25T22:39:50.417Z,18.30
2023-05-25T22:40:50.415Z,20.60
2023-05-25T22:41:50.374Z,14.90
2023-05-25T22:42:50.470Z,16.10
2023-05-25T22:43:50.304Z,14.90
2023-05-25T22:44:50.287Z,14.70
2023-05-25T22:45:50.321Z,18.40
2023-05-25T22:46:50.355Z,17.00
2023-05-25T22:47:50.360Z,20.90
2023-05-25T22:48:50.400Z,19.30
2023-05-25T22:49:50.253Z,14.80
2023-05-25T22:50:50.221Z,15.80
2023-05-25T22:51:51.961Z,17.20
2023-05-25T22:52:50.223Z,17.90
2023-05-25T22:53:50.191Z,19.60
2023-05-25T22:54:50.195Z,15.60
2023-05-25T22:55:50.404Z,19.20
2023-05-25T22:56:50.185Z,16.80
2023-05-25T22:57:50.124Z,18.60
2023-05-25T22:58:50.129Z,14.90
2023-05-25T22:59:50.130Z,14.60
2023-05-25T23:00:50.159Z,15.60
2023-05-25T23:01:50.176Z,16.00
2023-05-25T23:02:50.185Z,19.60
2023-05-25T23:03:50.140Z,20.10
2023-05-25T23:04:50.064Z,20.00
2023-05-25T23:05:50.061Z,18.20
2023-05-25T23:06:50.114Z,16.70
2023-05-25T23:07:50.023Z,16.50
2023-05-25T23:08:50.051Z,19.20
2023-05-25T23:09:50.015Z,16.00
2023-05-25T23:10:50.050Z,16.90
2023-05-25T23:11:50.008Z,18.00
2023-05-25T23:12:50.036Z,19.20
2023-05-25T23:13:49.989Z,20.10
2023-05-25T23:14:49.938Z,18.40
2023-05-25T23:15:49.970Z,22.10
2023-05-25T23:16:50.000Z,20.30
2023-05-25T23:17:49.969Z,18.60
2023-05-25T23:18:49.959Z,16.10
2023-05-25T23:19:49.907Z,16.90
2023-05-25T23:20:49.889Z,18.00
2023-05-25T23:21:49.881Z,14.20
2023-05-25T23:22:49.917Z,17.90
2023-05-25T23:23:49.882Z,19.90
2023-05-25T23:24:49.847Z,15.40
2023-05-25T23:25:49.856Z,18.20
2023-05-25T23:26:49.835Z,21.30
2023-05-25T23:27:49.846Z,17.70
2023-05-25T23:28:49.853Z,17.10
2023-05-25T23:29:49.859Z,16.30
2023-05-25T23:30:49.787Z,18.00
2023-05-25T23:31:50.418Z,21.80
2023-05-25T23:32:50.475Z,16.60
2023-05-25T23:33:49.784Z,21.30
2023-05-25T23:34:49.796Z,19.60
2023-05-25T23:35:49.753Z,17.90
2023-05-25T23:36:49.715Z,17.40
2023-05-25T23:37:49.731Z,13.70
2023-05-25T23:38:50.719Z,15.10
2023-05-25T23:40:22.119Z,20.60
2023-05-25T23:40:49.665Z,19.40
2023-05-25T23:41:49.657Z,18.40
2023-05-25T23:42:49.676Z,20.10
2023-05-25T23:43:49.637Z,21.20
2023-05-25T23:44:50.323Z,18.00
2023-05-25T23:45:49.675Z,19.20
2023-05-25T23:46:49.582Z,16.80
2023-05-25T23:47:49.685Z,20.90
2023-05-25T23:48:49.589Z,17.10
2023-05-25T23:49:49.602Z,17.40
2023-05-25T23:50:50.582Z,20.80
2023-05-25T23:51:49.593Z,18.40
2023-05-25T23:52:49.583Z,18.70
2023-05-25T23:53:49.551Z,22.40
2023-05-25T23:54:49.523Z,21.90
2023-05-25T23:55:49.507Z,16.70
2023-05-25T23:56:49.514Z,18.30
2023-05-25T23:57:49.526Z,15.70
2023-05-25T23:58:49.502Z,20.40
2023-05-25T23:59:50.423Z,19.50
